Terminal Aerodrome Forecast
Issued by NWS

Home | Current Version | Previous Version | Text Only | Print | Product List | Glossary On
Versions: 1 2 3 4 5 6 7 8 9 10 11 12 13 14 15
000
FTUS46 KSGX 251700
TAFSNA
TAF
KSNA 251721Z 2518/2618 23010KT P6SM SCT100
     FM260300 VRB05KT P6SM SCT015
     FM260700 VRB05KT P6SM OVC015=

USA.gov is the U.S. government's official web portal to all federal, state and local government web resources and services.